createdAt,value
2018-09-10T05:29:33.297Z,16.60
2018-09-10T05:32:05.628Z,16.70
2018-09-10T05:34:38.024Z,16.70
2018-09-10T05:37:10.392Z,16.70
2018-09-10T05:39:42.733Z,16.70
2018-09-10T05:42:15.075Z,16.80
2018-09-10T05:44:47.388Z,16.80
2018-09-10T05:47:19.900Z,16.80
2018-09-10T05:49:52.534Z,16.90
2018-09-10T05:52:25.282Z,16.90
2018-09-10T05:54:57.613Z,17.00
2018-09-10T05:57:29.990Z,17.00
2018-09-10T06:00:02.312Z,17.10
2018-09-10T06:02:34.664Z,17.10
2018-09-10T06:05:07.073Z,17.10
2018-09-10T06:07:39.439Z,17.20
2018-09-10T06:10:11.769Z,17.30
2018-09-10T06:12:44.113Z,17.30
2018-09-10T06:15:16.457Z,17.30
2018-09-10T06:17:48.804Z,17.40
2018-09-10T06:20:21.387Z,17.50
2018-09-10T06:22:53.717Z,17.50
2018-09-10T06:25:26.100Z,17.60
2018-09-10T06:27:58.448Z,17.70
2018-09-10T06:30:31.105Z,17.70
2018-09-10T06:33:03.511Z,17.80
2018-09-10T06:35:35.851Z,17.80
2018-09-10T06:38:08.201Z,17.80
2018-09-10T06:40:40.535Z,17.90
2018-09-10T06:43:12.888Z,17.90
2018-09-10T06:45:45.280Z,18.00
2018-09-10T06:48:17.632Z,18.00
2018-09-10T06:50:50.013Z,18.00
2018-09-10T06:53:22.395Z,18.10
2018-09-10T06:55:54.721Z,18.20
2018-09-10T06:58:27.084Z,18.30
2018-09-10T07:00:59.420Z,18.30
2018-09-10T07:03:31.812Z,18.40
2018-09-10T07:06:10.916Z,18.50
2018-09-10T07:08:43.276Z,18.60
2018-09-10T07:11:15.612Z,18.70
2018-09-10T07:13:47.980Z,18.80
2018-09-10T07:16:20.351Z,18.80
2018-09-10T07:18:52.760Z,18.90
2018-09-10T07:21:25.029Z,19.00
2018-09-10T07:23:57.398Z,19.10
2018-09-10T07:26:29.763Z,19.20
2018-09-10T07:29:02.147Z,19.40
2018-09-10T07:31:34.480Z,19.50
2018-09-10T07:34:06.880Z,19.70
2018-09-10T07:36:39.203Z,20.00
2018-09-10T07:39:11.551Z,20.10
2018-09-10T07:41:43.873Z,20.20
2018-09-10T07:44:16.226Z,20.40
2018-09-10T07:46:48.520Z,20.50
2018-09-10T07:49:20.849Z,20.70
2018-09-10T07:51:53.221Z,20.80
2018-09-10T07:54:25.606Z,21.10
2018-09-10T07:56:57.936Z,21.30
2018-09-10T07:59:30.253Z,21.60
2018-09-10T08:02:02.588Z,21.70
2018-09-10T08:04:34.900Z,21.80
2018-09-10T08:07:07.229Z,21.80
2018-09-10T08:09:39.633Z,21.90
2018-09-10T08:12:11.860Z,21.90
2018-09-10T08:14:44.185Z,21.90
2018-09-10T08:17:16.508Z,21.90
2018-09-10T08:19:48.862Z,21.80
2018-09-10T08:22:21.208Z,21.60
2018-09-10T08:24:53.568Z,21.50
2018-09-10T08:27:25.904Z,21.60
2018-09-10T08:29:58.317Z,21.70
2018-09-10T08:32:30.685Z,21.70
2018-09-10T08:35:03.114Z,21.80
2018-09-10T08:37:35.477Z,21.80
2018-09-10T08:40:07.921Z,21.70
2018-09-10T08:42:40.272Z,21.80
2018-09-10T08:45:12.576Z,22.10
2018-09-10T08:47:44.951Z,22.30
2018-09-10T08:50:17.261Z,22.50
2018-09-10T08:52:49.660Z,22.70
2018-09-10T08:55:22.057Z,22.80
2018-09-10T08:57:54.335Z,22.80
2018-09-10T09:00:26.679Z,22.90
2018-09-10T09:02:59.023Z,23.00
2018-09-10T09:05:31.371Z,23.00
2018-09-10T09:08:03.775Z,23.10
2018-09-10T09:10:36.044Z,23.10
2018-09-10T09:13:08.468Z,23.10
2018-09-10T09:15:40.813Z,23.10
2018-09-10T09:18:13.166Z,23.10
2018-09-10T09:20:45.962Z,23.10
2018-09-10T09:23:18.395Z,23.20
2018-09-10T09:25:50.665Z,23.20
2018-09-10T09:28:23.008Z,23.20
2018-09-10T09:30:55.343Z,23.10
2018-09-10T09:33:27.704Z,22.90
2018-09-10T09:36:00.238Z,22.90
2018-09-10T09:38:32.712Z,22.90
2018-09-10T09:41:05.048Z,22.80
2018-09-10T09:43:37.439Z,22.80
2018-09-10T09:46:09.775Z,22.90
2018-09-10T09:48:42.104Z,23.00
2018-09-10T09:51:14.544Z,22.90
2018-09-10T09:53:46.817Z,22.90
2018-09-10T09:56:19.152Z,22.90
2018-09-10T09:58:51.512Z,22.80
2018-09-10T10:01:23.910Z,22.80
2018-09-10T10:03:56.244Z,22.80
2018-09-10T10:06:28.619Z,22.70
2018-09-10T10:09:01.012Z,22.60
2018-09-10T10:11:33.474Z,22.50
2018-09-10T10:14:06.616Z,22.50
2018-09-10T10:19:17.656Z,23.10
2018-09-10T10:21:50.049Z,23.40
2018-09-10T10:24:22.399Z,23.50
2018-09-10T10:26:54.755Z,23.60
2018-09-10T10:29:27.104Z,23.70
2018-09-10T10:31:59.536Z,23.40
2018-09-10T10:34:31.884Z,23.30
2018-09-10T10:37:04.252Z,23.50
2018-09-10T10:39:36.597Z,23.50
2018-09-10T10:42:08.979Z,23.70
2018-09-10T10:44:41.312Z,23.70
2018-09-10T10:47:13.655Z,23.80
2018-09-10T10:49:46.012Z,23.80
2018-09-10T10:52:18.348Z,23.70
2018-09-10T10:54:50.689Z,23.60
2018-09-10T10:57:23.024Z,23.30
2018-09-10T10:59:55.376Z,23.50
2018-09-10T11:02:27.699Z,23.70
2018-09-10T11:05:00.089Z,24.10
2018-09-10T11:07:32.692Z,24.20
2018-09-10T11:10:05.917Z,24.30
2018-09-10T11:12:38.232Z,24.50
2018-09-10T11:15:10.557Z,24.70
2018-09-10T11:17:42.966Z,24.90
2018-09-10T11:20:15.341Z,24.80
2018-09-10T11:22:47.661Z,24.70
2018-09-10T11:25:19.980Z,24.90
2018-09-10T11:27:52.342Z,24.90
2018-09-10T11:30:24.628Z,25.10
2018-09-10T11:32:56.933Z,25.20
2018-09-10T11:35:29.253Z,25.30
2018-09-10T11:38:01.565Z,25.30
2018-09-10T11:40:33.888Z,25.30
2018-09-10T11:43:06.262Z,25.20
2018-09-10T11:45:38.600Z,25.10
2018-09-10T11:48:10.928Z,25.10
2018-09-10T11:50:43.255Z,25.10
2018-09-10T11:53:15.564Z,25.30
2018-09-10T11:55:47.915Z,25.30
2018-09-10T11:58:20.207Z,25.30
2018-09-10T12:00:52.568Z,25.40
2018-09-10T12:03:24.917Z,25.30
2018-09-10T12:05:57.275Z,25.30
2018-09-10T12:08:30.393Z,25.30
2018-09-10T12:11:02.743Z,25.40
2018-09-10T12:13:35.144Z,25.30
2018-09-10T12:16:07.427Z,25.30
2018-09-10T12:18:39.752Z,25.10
2018-09-10T12:21:12.095Z,25.10
2018-09-10T12:23:44.428Z,25.20
2018-09-10T12:26:16.780Z,25.30
2018-09-10T12:28:49.108Z,25.20
2018-09-10T12:31:21.463Z,25.20
2018-09-10T12:33:53.800Z,25.20
2018-09-10T12:36:26.152Z,25.20
2018-09-10T12:38:58.550Z,25.20
2018-09-10T12:41:30.878Z,25.30
2018-09-10T12:44:03.208Z,25.40
2018-09-10T12:46:35.591Z,25.40
2018-09-10T12:49:07.887Z,25.30
2018-09-10T12:51:40.228Z,25.30
2018-09-10T12:54:12.544Z,25.20
2018-09-10T12:56:44.884Z,25.10
2018-09-10T12:59:17.216Z,24.90
2018-09-10T13:01:49.577Z,24.90
2018-09-10T13:04:22.002Z,24.80
2018-09-10T13:06:54.259Z,24.90
2018-09-10T13:09:26.597Z,24.80
2018-09-10T13:11:58.971Z,24.70
2018-09-10T13:14:31.260Z,24.60
2018-09-10T13:17:03.862Z,24.30
2018-09-10T13:19:36.176Z,24.10
2018-09-10T13:22:08.511Z,24.00
2018-09-10T13:24:40.824Z,24.00
2018-09-10T13:27:13.144Z,23.90
2018-09-10T13:29:45.477Z,23.80
2018-09-10T13:32:17.776Z,23.80
2018-09-10T13:34:50.077Z,24.00
2018-09-10T13:37:22.424Z,24.20
2018-09-10T13:39:54.740Z,24.30
2018-09-10T13:42:27.068Z,24.40
2018-09-10T13:44:59.419Z,24.50
2018-09-10T13:47:31.773Z,24.50
2018-09-10T13:50:04.180Z,24.40
2018-09-10T13:52:36.577Z,24.10
2018-09-10T13:55:08.920Z,23.90
2018-09-10T13:57:41.364Z,24.00
2018-09-10T14:00:13.684Z,24.00
2018-09-10T14:02:46.048Z,24.20
2018-09-10T14:05:18.384Z,24.10
2018-09-10T14:07:50.743Z,24.10
2018-09-10T14:10:23.085Z,24.10
2018-09-10T14:12:55.718Z,24.20
2018-09-10T14:15:28.057Z,24.00
2018-09-10T14:18:00.392Z,23.90
2018-09-10T14:20:32.742Z,23.70
2018-09-10T14:23:05.068Z,23.70
2018-09-10T14:25:37.397Z,23.70
2018-09-10T14:28:09.736Z,23.60
2018-09-10T14:30:42.077Z,23.50
2018-09-10T14:33:14.411Z,23.50
2018-09-10T14:35:46.751Z,23.20
2018-09-10T14:38:19.128Z,23.10
2018-09-10T14:40:51.456Z,23.00
2018-09-10T14:43:23.783Z,22.90
2018-09-10T14:45:56.113Z,22.90
2018-09-10T14:48:28.445Z,22.80
2018-09-10T14:51:00.776Z,22.80
2018-09-10T14:53:33.225Z,22.80
2018-09-10T14:56:05.688Z,22.90
2018-09-10T14:58:38.036Z,23.00
2018-09-10T15:01:10.372Z,23.10
2018-09-10T15:03:42.780Z,23.20
2018-09-10T15:06:15.185Z,23.10
2018-09-10T15:08:47.554Z,23.00
2018-09-10T15:11:19.880Z,23.00
2018-09-10T15:13:52.245Z,23.00
2018-09-10T15:16:24.584Z,22.90
2018-09-10T15:18:57.066Z,22.80
2018-09-10T15:21:29.262Z,22.70
2018-09-10T15:24:01.622Z,22.60
2018-09-10T15:26:33.936Z,22.70
2018-09-10T15:29:06.296Z,22.70
2018-09-10T15:31:38.693Z,22.70
2018-09-10T15:34:11.004Z,22.70
2018-09-10T15:36:43.347Z,22.70
2018-09-10T15:39:15.784Z,22.80
2018-09-10T15:41:48.109Z,22.70
2018-09-10T15:44:20.467Z,22.80
2018-09-10T15:46:52.804Z,22.80
2018-09-10T15:49:25.160Z,22.80
2018-09-10T15:51:57.516Z,22.80
2018-09-10T15:54:29.847Z,22.80
2018-09-10T15:57:02.181Z,22.70
2018-09-10T15:59:34.516Z,22.60
2018-09-10T16:02:07.164Z,22.70
2018-09-10T16:04:39.475Z,22.70
2018-09-10T16:07:11.819Z,22.70
2018-09-10T16:09:44.096Z,22.60
2018-09-10T16:12:16.407Z,22.50
2018-09-10T16:14:48.732Z,22.50
2018-09-10T16:17:21.040Z,22.40
2018-09-10T16:19:53.356Z,22.40
2018-09-10T16:22:25.662Z,22.40
2018-09-10T16:24:57.985Z,22.40
2018-09-10T16:27:30.382Z,22.30
2018-09-10T16:30:02.694Z,22.30
2018-09-10T16:32:35.020Z,22.20
2018-09-10T16:35:07.370Z,22.20
2018-09-10T16:37:39.680Z,22.10
2018-09-10T16:40:12.002Z,22.10
2018-09-10T16:42:44.513Z,22.10
2018-09-10T16:45:17.239Z,22.10
2018-09-10T16:47:49.548Z,22.00
2018-09-10T16:50:21.872Z,22.00
2018-09-10T16:52:54.220Z,22.00
2018-09-10T16:55:26.561Z,22.00
2018-09-10T16:57:58.867Z,22.00
2018-09-10T17:00:31.219Z,21.90
2018-09-10T17:03:03.549Z,21.90
2018-09-10T17:05:35.935Z,21.90
2018-09-10T17:08:08.257Z,21.80
2018-09-10T17:10:40.606Z,21.80
2018-09-10T17:13:12.915Z,21.80
2018-09-10T17:15:45.264Z,21.70
2018-09-10T17:18:17.576Z,21.70
2018-09-10T17:20:49.900Z,21.60
2018-09-10T17:23:22.332Z,21.60
2018-09-10T17:25:54.619Z,21.60
2018-09-10T17:28:26.954Z,21.50
2018-09-10T17:30:59.248Z,21.50
2018-09-10T17:33:32.129Z,21.50
2018-09-10T17:36:04.497Z,21.40
2018-09-10T17:38:36.876Z,21.40
2018-09-10T17:41:09.212Z,21.30
2018-09-10T17:43:41.524Z,21.30
2018-09-10T17:46:13.847Z,21.30
2018-09-10T17:48:46.165Z,21.20
2018-09-10T17:51:18.501Z,21.10
2018-09-10T17:53:50.815Z,21.00
2018-09-10T17:56:23.116Z,21.00
2018-09-10T17:58:55.432Z,20.90
2018-09-10T18:01:27.796Z,20.90
2018-09-10T18:04:00.800Z,20.80
2018-09-10T18:06:33.112Z,20.70
2018-09-10T18:09:09.139Z,20.70
2018-09-10T18:11:41.524Z,20.60
2018-09-10T18:14:13.853Z,20.60
2018-09-10T18:16:46.191Z,20.50
2018-09-10T18:19:18.848Z,20.50
2018-09-10T18:21:51.208Z,20.50
2018-09-10T18:24:23.544Z,20.40
2018-09-10T18:26:56.614Z,20.40
2018-09-10T18:29:28.971Z,20.40
2018-09-10T18:32:01.296Z,20.40
2018-09-10T18:34:33.624Z,20.40
2018-09-10T18:37:05.972Z,20.40
2018-09-10T18:39:38.312Z,20.40
2018-09-10T18:42:10.643Z,20.30
2018-09-10T18:44:42.981Z,20.40
2018-09-10T18:47:15.351Z,20.30
2018-09-10T18:49:47.689Z,20.40
2018-09-10T18:52:20.028Z,20.30
2018-09-10T18:54:52.359Z,20.30
2018-09-10T18:57:24.909Z,20.30
2018-09-10T18:59:57.252Z,20.30
2018-09-10T19:02:29.587Z,20.30
2018-09-10T19:05:01.920Z,20.30
2018-09-10T19:07:34.239Z,20.30
2018-09-10T19:10:06.841Z,20.30
2018-09-10T19:12:39.160Z,20.20
2018-09-10T19:15:11.499Z,20.20
2018-09-10T19:17:43.820Z,20.10
2018-09-10T19:20:16.159Z,20.10
2018-09-10T19:22:49.017Z,20.10
2018-09-10T19:25:21.352Z,20.00
2018-09-10T19:27:53.695Z,19.90
2018-09-10T19:30:26.136Z,19.90
